createdAt,value
2018-06-13T00:01:14.343Z,17.00
2018-06-13T00:03:42.775Z,17.00
2018-06-13T00:06:11.195Z,17.00
2018-06-13T00:08:39.640Z,17.00
2018-06-13T00:11:08.123Z,17.00
2018-06-13T00:13:36.584Z,17.00
2018-06-13T00:16:05.124Z,17.10
2018-06-13T00:18:33.567Z,17.10
2018-06-13T00:21:01.996Z,17.00
2018-06-13T00:23:30.636Z,17.10
2018-06-13T00:25:59.079Z,17.00
2018-06-13T00:28:27.501Z,17.10
2018-06-13T00:30:55.959Z,17.10
2018-06-13T00:35:52.516Z,17.10
2018-06-13T00:38:20.947Z,17.10
2018-06-13T00:40:49.407Z,17.00
2018-06-13T00:43:17.835Z,17.10
2018-06-13T00:45:46.264Z,17.10
2018-06-13T00:48:14.723Z,17.10
2018-06-13T00:50:43.160Z,17.10
2018-06-13T00:53:11.640Z,17.10
2018-06-13T00:55:51.432Z,17.10
2018-06-13T01:00:47.991Z,17.10
2018-06-13T01:03:16.453Z,17.10
2018-06-13T01:05:44.888Z,17.00
2018-06-13T01:08:13.323Z,17.00
2018-06-13T01:10:41.768Z,17.00
2018-06-13T01:13:10.198Z,17.00
2018-06-13T01:15:38.653Z,17.00
2018-06-13T01:20:35.200Z,17.00
2018-06-13T01:25:31.745Z,17.00
2018-06-13T01:28:00.208Z,17.00
2018-06-13T01:30:28.636Z,17.00
2018-06-13T01:35:25.219Z,17.00
2018-06-13T01:37:53.663Z,17.00
2018-06-13T01:42:50.192Z,17.00
2018-06-13T01:45:18.644Z,17.00
2018-06-13T01:47:47.916Z,17.00
2018-06-13T01:50:16.368Z,16.90
2018-06-13T01:55:12.931Z,16.80
2018-06-13T02:00:09.472Z,16.80
2018-06-13T02:02:37.919Z,16.80
2018-06-13T02:05:06.340Z,16.70
2018-06-13T02:10:02.899Z,16.70
2018-06-13T02:14:59.448Z,16.70
2018-06-13T02:19:56.040Z,16.70
2018-06-13T02:22:24.519Z,16.70
2018-06-13T02:24:52.967Z,16.70
2018-06-13T02:29:49.523Z,16.60
2018-06-13T02:34:46.096Z,16.50
2018-06-13T02:37:14.556Z,16.50
2018-06-13T02:42:11.160Z,16.40
2018-06-13T02:44:39.608Z,16.30
2018-06-13T02:47:08.075Z,16.30
2018-06-13T02:49:36.528Z,16.20
2018-06-13T02:52:05.034Z,16.20
2018-06-13T02:54:33.476Z,16.20
2018-06-13T02:57:01.928Z,16.20
2018-06-13T02:59:30.405Z,16.10
2018-06-13T03:01:58.844Z,16.10
2018-06-13T03:04:27.318Z,16.10
2018-06-13T03:06:55.776Z,16.00
2018-06-13T03:09:24.249Z,16.00
2018-06-13T03:11:52.699Z,16.00
2018-06-13T03:14:21.180Z,16.00
2018-06-13T03:16:49.640Z,15.90
2018-06-13T03:19:18.107Z,15.90
2018-06-13T03:21:46.575Z,15.90
2018-06-13T03:24:15.060Z,15.90
2018-06-13T03:26:43.571Z,15.90
2018-06-13T03:31:40.165Z,15.80
2018-06-13T03:34:08.633Z,15.80
2018-06-13T03:36:37.091Z,15.80
2018-06-13T03:39:08.000Z,15.90
2018-06-13T03:41:36.549Z,15.90
2018-06-13T03:44:05.084Z,15.90
2018-06-13T03:49:01.693Z,15.90
2018-06-13T03:51:30.171Z,15.80
2018-06-13T03:53:58.615Z,15.90
2018-06-13T03:56:27.117Z,15.90
2018-06-13T03:58:55.568Z,15.90
2018-06-13T04:01:24.047Z,15.90
2018-06-13T04:03:52.543Z,15.90
2018-06-13T04:06:20.987Z,15.90
2018-06-13T04:08:49.460Z,15.90
2018-06-13T04:11:17.931Z,15.90
2018-06-13T04:13:46.399Z,15.90
2018-06-13T04:16:14.860Z,15.90
2018-06-13T04:18:43.327Z,15.90
2018-06-13T04:23:39.924Z,15.90
2018-06-13T04:26:08.381Z,15.90
2018-06-13T04:28:36.852Z,15.90
2018-06-13T04:31:05.302Z,15.90
2018-06-13T04:33:33.768Z,15.90
2018-06-13T04:36:02.213Z,15.90
2018-06-13T04:38:30.656Z,15.90
2018-06-13T04:40:59.136Z,15.80
2018-06-13T04:43:27.597Z,15.90
2018-06-13T04:45:56.064Z,15.90
2018-06-13T04:48:24.511Z,15.80
2018-06-13T04:50:52.984Z,15.90
2018-06-13T04:53:21.431Z,15.90
2018-06-13T04:55:49.909Z,15.90
2018-06-13T04:58:18.419Z,15.90
2018-06-13T05:00:46.843Z,15.90
2018-06-13T05:03:15.320Z,15.90
2018-06-13T05:05:43.775Z,15.90
2018-06-13T05:08:12.244Z,15.90
2018-06-13T05:13:08.839Z,15.90
2018-06-13T05:15:37.296Z,15.90
2018-06-13T05:18:05.775Z,15.90
2018-06-13T05:20:34.251Z,15.90
2018-06-13T05:23:02.701Z,15.90
2018-06-13T05:25:31.175Z,16.00
2018-06-13T05:27:59.635Z,16.00
2018-06-13T05:30:28.108Z,16.00
2018-06-13T05:32:56.576Z,16.00
2018-06-13T05:35:25.056Z,16.00
2018-06-13T05:37:53.768Z,16.10
2018-06-13T05:40:22.228Z,16.20
2018-06-13T05:42:50.704Z,16.20
2018-06-13T05:45:19.155Z,16.20
2018-06-13T05:50:15.764Z,16.20
2018-06-13T05:52:44.256Z,16.20
2018-06-13T05:55:12.728Z,16.20
2018-06-13T05:57:41.204Z,16.30
2018-06-13T06:00:09.692Z,16.40
2018-06-13T06:02:38.144Z,16.40
2018-06-13T06:05:06.668Z,16.40
2018-06-13T06:07:35.128Z,16.40
2018-06-13T06:10:03.663Z,16.50
2018-06-13T06:12:32.130Z,16.60
2018-06-13T06:15:00.604Z,16.60
2018-06-13T06:17:29.052Z,16.60
2018-06-13T06:19:57.509Z,16.70
2018-06-13T06:27:22.280Z,17.00
2018-06-13T06:29:50.736Z,17.10
2018-06-13T06:32:19.208Z,17.10
2018-06-13T06:34:47.665Z,17.10
2018-06-13T06:37:16.120Z,17.20
2018-06-13T06:39:44.604Z,17.30
2018-06-13T06:42:13.058Z,17.30
2018-06-13T06:44:41.556Z,17.40
2018-06-13T06:47:10.005Z,17.40
2018-06-13T06:49:38.517Z,17.40
2018-06-13T06:52:06.959Z,17.60
2018-06-13T06:54:35.435Z,17.70
2018-06-13T06:57:03.889Z,17.80
2018-06-13T06:59:32.383Z,17.80
2018-06-13T07:02:00.860Z,17.90
2018-06-13T07:04:29.319Z,17.90
2018-06-13T07:06:57.787Z,17.90
2018-06-13T07:09:26.240Z,17.90
2018-06-13T07:11:54.707Z,17.90
2018-06-13T07:14:23.159Z,17.90
2018-06-13T07:16:51.599Z,18.00
2018-06-13T07:19:20.112Z,18.00
2018-06-13T07:21:48.559Z,18.10
2018-06-13T07:24:17.029Z,18.20
2018-06-13T07:26:45.480Z,18.30
2018-06-13T07:31:42.069Z,18.40
2018-06-13T07:34:10.535Z,18.30
2018-06-13T07:36:38.996Z,18.10
2018-06-13T07:44:04.616Z,18.00
2018-06-13T07:46:33.083Z,18.10
2018-06-13T07:49:01.574Z,18.20
2018-06-13T07:51:30.080Z,18.20
2018-06-13T07:53:58.537Z,18.20
2018-06-13T07:56:26.995Z,18.10
2018-06-13T07:58:55.459Z,18.10
2018-06-13T08:01:23.908Z,18.00
2018-06-13T08:03:52.400Z,17.90
2018-06-13T08:08:49.094Z,17.80
2018-06-13T08:11:17.568Z,17.80
2018-06-13T08:13:46.040Z,17.80
2018-06-13T08:16:14.487Z,17.80
2018-06-13T08:18:42.936Z,18.00
2018-06-13T08:21:12.302Z,18.20
2018-06-13T08:23:40.780Z,18.30
2018-06-13T08:26:09.333Z,18.30
2018-06-13T08:28:37.771Z,18.20
2018-06-13T08:31:06.386Z,18.10
2018-06-13T08:33:34.839Z,18.00
2018-06-13T08:36:03.436Z,18.00
2018-06-13T08:38:31.896Z,17.80
2018-06-13T08:41:00.344Z,17.70
2018-06-13T08:45:56.939Z,17.70
2018-06-13T08:48:25.471Z,17.70
2018-06-13T08:50:53.932Z,17.80
2018-06-13T08:53:22.404Z,17.80
2018-06-13T08:55:50.931Z,17.90
2018-06-13T08:58:19.336Z,18.10
2018-06-13T09:00:47.836Z,18.20
2018-06-13T09:03:16.295Z,18.40
2018-06-13T09:05:44.772Z,18.60
2018-06-13T09:08:13.227Z,18.80
2018-06-13T09:10:41.693Z,19.00
2018-06-13T09:13:10.148Z,19.20
2018-06-13T09:15:38.643Z,19.30
2018-06-13T09:18:07.124Z,19.30
2018-06-13T09:20:35.611Z,19.50
2018-06-13T09:23:04.092Z,19.50
2018-06-13T09:25:32.561Z,19.60
2018-06-13T09:28:01.032Z,19.60
2018-06-13T09:30:29.503Z,19.70
2018-06-13T09:32:58.035Z,19.60
2018-06-13T09:35:26.487Z,19.60
2018-06-13T09:37:54.933Z,19.50
2018-06-13T09:40:23.441Z,19.60
2018-06-13T09:42:51.892Z,19.70
2018-06-13T09:45:20.371Z,19.90
2018-06-13T09:47:48.826Z,20.00
2018-06-13T09:50:17.309Z,20.30
2018-06-13T09:55:13.912Z,20.70
2018-06-13T09:57:42.376Z,20.90
2018-06-13T10:00:16.167Z,21.10
2018-06-13T10:02:44.639Z,21.20
2018-06-13T10:07:41.296Z,20.90
2018-06-13T10:12:37.883Z,20.60
2018-06-13T10:15:06.351Z,20.40
2018-06-13T10:17:34.825Z,20.20
2018-06-13T10:20:03.281Z,20.10
2018-06-13T10:22:31.726Z,20.00
2018-06-13T10:25:00.195Z,19.80
2018-06-13T10:27:34.028Z,19.60
2018-06-13T10:30:02.504Z,19.70
2018-06-13T10:32:30.942Z,19.60
2018-06-13T10:34:59.424Z,19.50
2018-06-13T10:37:27.872Z,19.40
2018-06-13T10:39:56.328Z,19.30
2018-06-13T10:42:24.802Z,19.10
2018-06-13T10:44:53.251Z,19.10
2018-06-13T10:47:21.720Z,19.10
2018-06-13T10:49:50.175Z,19.10
2018-06-13T10:52:18.648Z,19.20
2018-06-13T10:54:47.108Z,19.10
2018-06-13T10:57:15.555Z,19.10
2018-06-13T10:59:44.033Z,19.00
2018-06-13T11:02:12.487Z,19.10
2018-06-13T11:04:40.960Z,19.10
2018-06-13T11:07:09.404Z,19.20
2018-06-13T11:09:37.872Z,19.50
2018-06-13T11:12:06.392Z,19.80
2018-06-13T11:14:34.868Z,20.00
2018-06-13T11:17:03.331Z,20.00
2018-06-13T11:19:31.788Z,20.00
2018-06-13T11:22:00.292Z,20.00
2018-06-13T11:24:28.744Z,20.20
2018-06-13T11:26:57.219Z,20.50
2018-06-13T11:29:25.655Z,20.80
2018-06-13T11:31:54.124Z,21.00
2018-06-13T11:34:22.624Z,21.20
2018-06-13T11:36:51.656Z,21.20
2018-06-13T11:41:48.240Z,21.40
2018-06-13T11:44:16.711Z,21.60
2018-06-13T11:46:45.163Z,21.70
2018-06-13T11:51:41.780Z,22.40
2018-06-13T11:54:10.263Z,22.70
2018-06-13T11:56:38.708Z,23.10
2018-06-13T12:01:35.356Z,23.70
2018-06-13T12:04:03.820Z,24.20
2018-06-13T12:09:00.417Z,24.60
2018-06-13T12:11:28.914Z,24.20
2018-06-13T12:13:57.364Z,23.80
2018-06-13T12:16:25.819Z,23.60
2018-06-13T12:18:54.296Z,23.40
2018-06-13T12:23:50.899Z,23.20
2018-06-13T12:26:19.361Z,23.00
2018-06-13T12:28:47.976Z,23.00
2018-06-13T12:31:16.424Z,22.70
2018-06-13T12:33:44.888Z,22.40
2018-06-13T12:36:13.345Z,21.90
2018-06-13T12:38:42.277Z,21.70
2018-06-13T12:41:10.719Z,21.40
2018-06-13T12:43:39.187Z,21.30
2018-06-13T12:46:07.664Z,21.20
2018-06-13T12:48:36.131Z,21.20
2018-06-13T12:51:04.660Z,21.10
2018-06-13T12:56:01.260Z,20.70
2018-06-13T12:58:29.740Z,20.60
2018-06-13T13:00:58.195Z,20.40
2018-06-13T13:03:26.651Z,20.30
2018-06-13T13:08:23.240Z,20.60
2018-06-13T13:10:51.716Z,20.70
2018-06-13T13:13:20.172Z,20.90
2018-06-13T13:18:16.768Z,21.80
2018-06-13T13:20:45.248Z,21.80
2018-06-13T13:23:13.723Z,21.80
2018-06-13T13:25:42.159Z,21.60
2018-06-13T13:28:10.640Z,21.60
2018-06-13T13:30:39.096Z,21.40
2018-06-13T13:33:07.536Z,21.10
2018-06-13T13:35:36.126Z,21.00
2018-06-13T13:38:04.704Z,21.00
2018-06-13T13:40:33.179Z,21.10
2018-06-13T13:43:01.622Z,21.20
2018-06-13T13:45:30.094Z,21.20
2018-06-13T13:47:58.556Z,21.40
2018-06-13T13:50:27.016Z,21.20
2018-06-13T13:52:55.489Z,21.10
2018-06-13T13:55:23.992Z,21.10
2018-06-13T13:57:52.468Z,21.10
2018-06-13T14:00:20.928Z,21.10
2018-06-13T14:02:49.368Z,21.00
2018-06-13T14:05:17.863Z,20.90
2018-06-13T14:07:46.303Z,20.80
2018-06-13T14:10:14.799Z,20.70
2018-06-13T14:12:43.264Z,20.70
2018-06-13T14:15:11.770Z,20.80
2018-06-13T14:17:40.255Z,20.80
2018-06-13T14:20:08.779Z,20.90
2018-06-13T14:22:37.360Z,20.90
2018-06-13T14:27:33.991Z,20.90
2018-06-13T14:30:02.460Z,20.80
2018-06-13T14:32:30.903Z,20.80
2018-06-13T14:34:59.379Z,20.80
2018-06-13T14:37:27.848Z,20.80
2018-06-13T14:39:56.335Z,20.70
2018-06-13T14:42:24.803Z,20.70
2018-06-13T14:44:53.564Z,20.60
2018-06-13T14:47:22.039Z,20.50
2018-06-13T14:49:50.492Z,20.50
2018-06-13T14:52:18.976Z,20.40
2018-06-13T14:54:47.435Z,20.40
2018-06-13T14:57:15.900Z,20.20
2018-06-13T14:59:44.375Z,20.10
2018-06-13T15:02:12.852Z,20.10
2018-06-13T15:04:41.322Z,20.10
2018-06-13T15:09:37.911Z,20.10
2018-06-13T15:12:06.451Z,20.10
2018-06-13T15:14:34.920Z,20.00
2018-06-13T15:17:03.395Z,19.90
2018-06-13T15:19:31.867Z,19.90
2018-06-13T15:22:00.354Z,19.90
2018-06-13T15:24:28.831Z,19.90
2018-06-13T15:26:57.296Z,19.90
2018-06-13T15:29:25.756Z,19.70
2018-06-13T15:31:54.244Z,19.70
2018-06-13T15:34:22.735Z,19.70
2018-06-13T15:36:51.266Z,19.60
2018-06-13T15:39:19.728Z,19.40
2018-06-13T15:41:48.220Z,19.40
2018-06-13T15:44:16.721Z,19.40
2018-06-13T15:49:13.308Z,19.40
2018-06-13T15:51:42.090Z,19.50
2018-06-13T15:54:10.572Z,19.60
2018-06-13T15:56:39.090Z,19.60
2018-06-13T15:59:07.576Z,19.80
2018-06-13T16:01:36.101Z,19.80
2018-06-13T16:04:04.644Z,19.80
2018-06-13T16:06:33.128Z,19.90
2018-06-13T16:09:01.604Z,19.90
2018-06-13T16:11:30.060Z,19.80
2018-06-13T16:13:58.548Z,19.70
2018-06-13T16:16:27.004Z,19.60
2018-06-13T16:18:55.479Z,19.60
2018-06-13T16:21:23.944Z,19.50
2018-06-13T16:26:20.588Z,19.40
2018-06-13T16:31:17.236Z,19.40
2018-06-13T16:33:45.704Z,19.30
2018-06-13T16:36:14.175Z,19.30
2018-06-13T16:38:42.616Z,19.30
2018-06-13T16:41:11.088Z,19.20
2018-06-13T16:43:39.591Z,19.20
2018-06-13T16:46:08.068Z,19.20
2018-06-13T16:48:36.626Z,19.20
2018-06-13T16:51:16.492Z,19.30
2018-06-13T16:53:52.340Z,19.30
2018-06-13T16:56:21.207Z,19.30
2018-06-13T16:58:50.435Z,19.30
2018-06-13T17:03:47.184Z,19.30
2018-06-13T17:06:15.694Z,19.30
2018-06-13T17:08:44.179Z,19.20
2018-06-13T17:11:12.672Z,19.10
2018-06-13T17:13:41.158Z,19.20
2018-06-13T17:16:09.632Z,19.10
2018-06-13T17:18:38.096Z,19.10
2018-06-13T17:21:06.731Z,19.10
2018-06-13T17:23:35.851Z,19.00
2018-06-13T17:31:00.981Z,18.80
2018-06-13T17:35:57.664Z,18.80
2018-06-13T17:38:26.155Z,18.80
2018-06-13T17:40:54.652Z,18.70
2018-06-13T17:43:23.133Z,18.60
2018-06-13T17:45:51.615Z,18.50
2018-06-13T17:48:20.084Z,18.50
2018-06-13T17:50:48.613Z,18.40
2018-06-13T17:53:17.037Z,18.40
2018-06-13T17:55:45.513Z,18.40
2018-06-13T17:58:13.960Z,18.40
2018-06-13T18:00:42.436Z,18.40
2018-06-13T18:03:11.030Z,18.40
2018-06-13T18:05:39.500Z,18.30
2018-06-13T18:08:07.988Z,18.20
2018-06-13T18:10:36.488Z,18.30
2018-06-13T18:13:10.664Z,18.20
2018-06-13T18:15:39.160Z,18.20
2018-06-13T18:18:07.696Z,18.10
2018-06-13T18:20:36.180Z,18.10
2018-06-13T18:23:04.668Z,18.00
2018-06-13T18:25:33.149Z,18.00
2018-06-13T18:28:01.621Z,18.00
2018-06-13T18:30:30.095Z,17.90
2018-06-13T18:32:58.555Z,17.90
2018-06-13T18:35:27.035Z,17.80
2018-06-13T18:37:55.935Z,17.80
2018-06-13T18:42:52.543Z,17.80
2018-06-13T18:45:21.004Z,17.80
2018-06-13T18:47:49.496Z,17.80
2018-06-13T18:50:17.972Z,17.70
2018-06-13T18:52:46.444Z,17.70
2018-06-13T18:55:14.900Z,17.60
2018-06-13T19:02:39.683Z,17.50
2018-06-13T19:05:08.159Z,17.50
2018-06-13T19:07:36.612Z,17.40
2018-06-13T19:10:05.260Z,17.40
2018-06-13T19:12:33.717Z,17.30
2018-06-13T19:15:02.184Z,17.30
2018-06-13T19:17:30.669Z,17.30
2018-06-13T19:19:59.183Z,17.20
2018-06-13T19:22:27.673Z,17.20
2018-06-13T19:24:56.131Z,17.20
2018-06-13T19:27:24.604Z,17.10
2018-06-13T19:29:53.060Z,17.10
2018-06-13T19:32:21.531Z,17.10
2018-06-13T19:34:49.987Z,17.00
2018-06-13T19:37:18.451Z,16.90
2018-06-13T19:39:46.899Z,16.90
2018-06-13T19:42:15.359Z,16.90
2018-06-13T19:44:43.859Z,16.90
2018-06-13T19:47:17.635Z,16.90
2018-06-13T19:49:46.103Z,16.90
2018-06-13T19:54:48.107Z,16.90
2018-06-13T19:57:16.567Z,16.90
2018-06-13T20:04:46.767Z,16.80
2018-06-13T20:07:15.283Z,16.80
2018-06-13T20:09:43.779Z,16.80
2018-06-13T20:14:55.695Z,16.80
2018-06-13T20:19:57.799Z,16.70
2018-06-13T20:22:26.371Z,16.70
2018-06-13T20:27:33.852Z,16.60
2018-06-13T20:30:07.795Z,16.60
2018-06-13T20:32:36.276Z,16.60
2018-06-13T20:35:04.851Z,16.60
2018-06-13T20:37:33.344Z,16.50
2018-06-13T20:40:01.807Z,16.60
2018-06-13T20:42:30.313Z,16.60
2018-06-13T20:44:58.807Z,16.60
2018-06-13T20:47:27.284Z,16.60
2018-06-13T20:49:55.820Z,16.50
2018-06-13T20:52:24.850Z,16.60
2018-06-13T20:54:53.360Z,16.50
2018-06-13T20:57:21.847Z,16.50
2018-06-13T20:59:50.379Z,16.50
2018-06-13T21:04:46.999Z,16.50
2018-06-13T21:07:15.466Z,16.50
2018-06-13T21:09:43.947Z,16.50
2018-06-13T21:12:12.403Z,16.40
2018-06-13T21:14:40.875Z,16.40
2018-06-13T21:17:09.340Z,16.40
2018-06-13T21:22:06.107Z,16.30
2018-06-13T21:27:03.052Z,16.30
2018-06-13T21:29:31.524Z,16.30
2018-06-13T21:32:00.009Z,16.30
2018-06-13T21:34:28.473Z,16.20
2018-06-13T21:36:56.951Z,16.30
2018-06-13T21:39:25.404Z,16.20
2018-06-13T21:41:53.884Z,16.20
2018-06-13T21:44:22.403Z,16.20
2018-06-13T21:46:50.864Z,16.20
2018-06-13T21:49:19.339Z,16.20
2018-06-13T21:51:47.784Z,16.20
2018-06-13T21:54:16.255Z,16.20
2018-06-13T21:59:12.897Z,16.20
2018-06-13T22:01:41.356Z,16.30
2018-06-13T22:04:09.852Z,16.20
2018-06-13T22:06:38.323Z,16.20
2018-06-13T22:09:08.954Z,16.20
2018-06-13T22:11:42.724Z,16.20
2018-06-13T22:14:11.200Z,16.20
2018-06-13T22:16:39.685Z,16.20
2018-06-13T22:19:08.144Z,16.20
2018-06-13T22:21:36.619Z,16.20
2018-06-13T22:24:05.077Z,16.20
2018-06-13T22:26:33.555Z,16.10
2018-06-13T22:29:01.996Z,16.10
2018-06-13T22:31:30.463Z,16.10
2018-06-13T22:33:58.916Z,16.10
2018-06-13T22:38:55.509Z,16.10
2018-06-13T22:41:23.955Z,16.10
2018-06-13T22:46:20.560Z,16.00
2018-06-13T22:48:49.044Z,16.00
2018-06-13T22:51:17.527Z,16.00
2018-06-13T22:53:46.020Z,16.00
2018-06-13T22:56:14.484Z,16.10
2018-06-13T22:58:42.935Z,16.10
2018-06-13T23:01:12.432Z,16.10
2018-06-13T23:08:38.979Z,16.10
2018-06-13T23:11:07.508Z,16.10
2018-06-13T23:13:35.964Z,16.10
2018-06-13T23:16:04.455Z,16.10
2018-06-13T23:18:32.920Z,16.10
2018-06-13T23:23:30.271Z,16.10
2018-06-13T23:25:58.728Z,16.10
2018-06-13T23:28:27.228Z,16.10
2018-06-13T23:30:55.697Z,16.00
2018-06-13T23:33:24.156Z,16.00
2018-06-13T23:35:52.633Z,16.10
2018-06-13T23:38:21.086Z,16.10
2018-06-13T23:40:49.567Z,16.00
2018-06-13T23:43:18.024Z,16.10
2018-06-13T23:45:46.508Z,16.10
2018-06-13T23:48:14.969Z,16.10
2018-06-13T23:50:43.468Z,16.00
2018-06-13T23:53:11.951Z,16.00
2018-06-13T23:55:40.431Z,16.00
2018-06-13T23:58:08.896Z,16.00
